createdAt,value
2023-03-14T00:00:17.496Z,10.59
2023-03-14T00:02:44.326Z,10.56
2023-03-14T00:05:11.306Z,10.70
2023-03-14T00:07:39.658Z,10.48
2023-03-14T00:10:09.215Z,10.58
2023-03-14T00:12:35.893Z,10.62
2023-03-14T00:15:04.403Z,10.68
2023-03-14T00:17:32.120Z,10.51
2023-03-14T00:20:05.066Z,10.56
2023-03-14T00:22:32.725Z,10.50
2023-03-14T00:24:59.266Z,10.72
2023-03-14T00:27:25.865Z,10.62
2023-03-14T00:29:52.497Z,10.56
2023-03-14T00:32:19.195Z,10.73
2023-03-14T00:34:45.836Z,10.97
2023-03-14T00:37:12.400Z,10.87
2023-03-14T00:39:38.958Z,10.75
2023-03-14T00:42:05.524Z,10.75
2023-03-14T00:44:32.830Z,10.81
2023-03-14T00:46:59.785Z,10.77
2023-03-14T00:49:26.812Z,10.99
2023-03-14T00:51:53.474Z,10.89
2023-03-14T00:54:21.169Z,11.27
2023-03-14T00:56:47.812Z,11.04
2023-03-14T00:59:14.426Z,10.55
2023-03-14T01:01:41.429Z,10.65
2023-03-14T01:04:08.053Z,10.58
2023-03-14T01:06:34.992Z,10.96
2023-03-14T01:09:01.890Z,11.26
2023-03-14T01:11:30.924Z,11.01
2023-03-14T01:13:58.693Z,10.71
2023-03-14T01:16:34.535Z,10.86
2023-03-14T01:19:01.870Z,10.84
2023-03-14T01:21:31.584Z,10.52
2023-03-14T01:24:00.115Z,10.52
2023-03-14T01:26:30.300Z,10.26
2023-03-14T01:28:57.137Z,10.25
2023-03-14T01:31:25.799Z,10.35
2023-03-14T01:33:52.728Z,10.32
2023-03-14T01:36:19.949Z,10.18
2023-03-14T01:38:47.157Z,10.25
2023-03-14T01:41:22.666Z,10.42
2023-03-14T01:43:50.600Z,10.37
2023-03-14T01:46:23.273Z,10.45
2023-03-14T01:49:05.370Z,10.29
2023-03-14T01:51:46.202Z,10.27
2023-03-14T01:54:32.645Z,10.34
2023-03-14T01:57:07.716Z,10.25
2023-03-14T01:59:36.471Z,10.40
2023-03-14T02:02:08.537Z,10.20
2023-03-14T02:04:36.450Z,10.26
2023-03-14T02:07:13.297Z,10.22
2023-03-14T02:09:45.356Z,10.34
2023-03-14T02:12:18.808Z,10.27
2023-03-14T02:14:52.539Z,10.47
2023-03-14T02:17:25.050Z,9.94
2023-03-14T02:20:23.911Z,10.16
2023-03-14T02:22:56.048Z,10.16
2023-03-14T02:25:46.899Z,10.35
2023-03-14T02:28:14.215Z,10.55
2023-03-14T02:30:41.320Z,10.08
2023-03-14T02:33:11.952Z,10.54
2023-03-14T02:35:54.154Z,10.44
2023-03-14T02:38:38.904Z,10.32
2023-03-14T02:41:06.976Z,10.20
2023-03-14T02:43:38.941Z,10.19
2023-03-14T02:46:13.178Z,10.37
2023-03-14T02:48:45.833Z,10.32
2023-03-14T02:51:13.672Z,9.95
2023-03-14T02:53:42.271Z,10.14
2023-03-14T02:56:11.709Z,9.78
2023-03-14T02:58:38.831Z,10.08
2023-03-14T03:01:15.630Z,9.67
2023-03-14T03:03:42.743Z,10.23
2023-03-14T03:06:09.573Z,10.23
2023-03-14T03:08:36.275Z,9.93
2023-03-14T03:11:02.840Z,10.23
2023-03-14T03:13:33.102Z,9.76
2023-03-14T03:16:01.658Z,10.25
2023-03-14T03:18:28.235Z,10.16
2023-03-14T03:20:54.925Z,9.74
2023-03-14T03:23:22.956Z,10.17
2023-03-14T03:25:51.354Z,10.30
2023-03-14T03:28:18.884Z,9.81
2023-03-14T03:30:46.245Z,10.01
2023-03-14T03:33:13.403Z,9.95
2023-03-14T03:35:47.759Z,10.32
2023-03-14T03:38:17.595Z,10.35
2023-03-14T03:40:45.821Z,10.11
2023-03-14T03:43:12.606Z,10.39
2023-03-14T03:45:42.410Z,10.64
2023-03-14T03:48:09.235Z,10.60
2023-03-14T03:50:36.258Z,10.50
2023-03-14T03:53:03.108Z,10.07
2023-03-14T03:55:29.778Z,10.02
2023-03-14T03:57:56.415Z,10.21
2023-03-14T04:00:23.035Z,10.06
2023-03-14T04:02:49.772Z,9.62
2023-03-14T04:05:17.963Z,9.76
2023-03-14T04:07:59.295Z,10.16
2023-03-14T04:10:27.903Z,9.70
2023-03-14T04:13:12.732Z,9.60
2023-03-14T04:15:41.087Z,9.79
2023-03-14T04:18:14.026Z,9.94
2023-03-14T04:20:42.125Z,10.18
2023-03-14T04:23:09.278Z,10.06
2023-03-14T04:25:35.932Z,9.74
2023-03-14T04:28:05.102Z,9.57
2023-03-14T04:30:32.737Z,9.38
2023-03-14T04:33:08.397Z,9.59
2023-03-14T04:35:39.181Z,9.14
2023-03-14T04:38:09.658Z,9.17
2023-03-14T04:40:41.197Z,9.05
2023-03-14T04:43:10.724Z,9.50
2023-03-14T04:45:43.166Z,9.27
2023-03-14T04:48:10.850Z,9.11
2023-03-14T04:50:38.530Z,9.11
2023-03-14T04:53:05.589Z,9.30
2023-03-14T04:55:33.484Z,8.99
2023-03-14T04:58:00.426Z,9.39
2023-03-14T05:00:27.021Z,9.27
2023-03-14T05:03:29.939Z,9.14
2023-03-14T05:06:07.681Z,9.44
2023-03-14T05:09:01.902Z,9.17
2023-03-14T05:11:57.750Z,9.43
2023-03-14T05:14:47.266Z,9.20
2023-03-14T05:17:34.063Z,9.27
2023-03-14T05:20:21.553Z,9.36
2023-03-14T05:23:11.215Z,9.37
2023-03-14T05:25:58.020Z,8.96
2023-03-14T05:28:38.449Z,9.08
2023-03-14T05:31:19.073Z,9.12
2023-03-14T05:33:55.118Z,9.42
2023-03-14T05:36:36.572Z,9.08
2023-03-14T05:39:22.226Z,8.92
2023-03-14T05:42:09.048Z,9.20
2023-03-14T05:44:58.105Z,9.24
2023-03-14T05:47:43.448Z,9.11
2023-03-14T05:50:23.247Z,9.43
2023-03-14T05:53:16.115Z,9.19
2023-03-14T05:55:59.809Z,9.10
2023-03-14T05:58:39.647Z,9.17
2023-03-14T06:01:24.729Z,9.07
2023-03-14T06:04:06.244Z,9.20
2023-03-14T06:06:33.331Z,9.14
2023-03-14T06:09:01.865Z,9.31
2023-03-14T06:11:30.929Z,9.75
2023-03-14T06:13:57.504Z,9.45
2023-03-14T06:16:24.097Z,9.67
2023-03-14T06:18:53.236Z,9.86
2023-03-14T06:21:21.095Z,9.57
2023-03-14T06:23:49.863Z,9.23
2023-03-14T06:26:17.418Z,9.49
2023-03-14T06:28:44.221Z,9.64
2023-03-14T06:31:10.936Z,9.44
2023-03-14T06:33:46.644Z,9.58
2023-03-14T06:36:13.325Z,9.48
2023-03-14T06:38:43.024Z,9.48
2023-03-14T06:41:09.703Z,9.18
2023-03-14T06:43:41.729Z,9.36
2023-03-14T06:46:09.304Z,9.29
2023-03-14T06:48:38.682Z,9.23
2023-03-14T06:51:07.437Z,9.19
2023-03-14T06:53:34.341Z,9.25
2023-03-14T06:56:02.772Z,9.36
2023-03-14T06:58:32.079Z,9.48
2023-03-14T07:00:59.998Z,9.40
2023-03-14T07:03:32.117Z,9.37
2023-03-14T07:06:00.622Z,9.34
2023-03-14T07:08:27.506Z,9.46
2023-03-14T07:10:56.714Z,9.40
2023-03-14T07:13:23.304Z,9.52
2023-03-14T07:15:57.033Z,9.47
2023-03-14T07:18:23.959Z,9.53
2023-03-14T07:20:51.546Z,9.75
2023-03-14T07:23:19.323Z,9.67
2023-03-14T07:25:52.662Z,9.72
2023-03-14T07:28:20.921Z,10.04
2023-03-14T07:30:50.092Z,9.95
2023-03-14T07:33:21.272Z,9.93
2023-03-14T07:35:49.546Z,9.91
2023-03-14T07:38:17.091Z,9.80
2023-03-14T07:41:05.895Z,10.04
2023-03-14T07:43:35.551Z,10.04
2023-03-14T07:46:02.228Z,9.84
2023-03-14T07:48:29.058Z,9.87
2023-03-14T07:50:56.243Z,10.02
2023-03-14T07:53:23.610Z,9.83
2023-03-14T07:55:54.390Z,9.93
2023-03-14T07:58:22.738Z,9.69
2023-03-14T08:00:50.349Z,10.03
2023-03-14T08:03:17.635Z,10.29
2023-03-14T08:05:45.692Z,10.13
2023-03-14T08:08:12.437Z,10.23
2023-03-14T08:10:39.077Z,10.36
2023-03-14T08:13:05.617Z,10.16
2023-03-14T08:15:32.828Z,10.13
2023-03-14T08:17:59.575Z,10.40
2023-03-14T08:20:28.769Z,10.44
2023-03-14T08:22:59.640Z,10.50
2023-03-14T08:25:27.734Z,10.65
2023-03-14T08:27:54.464Z,10.39
2023-03-14T08:30:22.753Z,10.44
2023-03-14T08:32:49.454Z,10.53
2023-03-14T08:35:16.431Z,10.57
2023-03-14T08:37:43.137Z,10.61
2023-03-14T08:40:10.940Z,10.68
2023-03-14T08:42:39.564Z,10.66
2023-03-14T08:45:08.037Z,10.58
2023-03-14T08:47:34.582Z,10.84
2023-03-14T08:50:01.293Z,10.70
2023-03-14T08:52:28.055Z,10.87
2023-03-14T08:54:54.709Z,10.83
2023-03-14T08:57:22.825Z,10.81
2023-03-14T08:59:49.474Z,10.76
2023-03-14T09:02:16.022Z,10.60
2023-03-14T09:04:42.647Z,10.70
2023-03-14T09:07:09.337Z,10.66
2023-03-14T09:09:35.908Z,10.86
2023-03-14T09:12:02.537Z,10.34
2023-03-14T09:14:29.776Z,10.31
2023-03-14T09:16:56.446Z,10.34
2023-03-14T09:19:23.106Z,10.25
2023-03-14T09:21:49.786Z,10.36
2023-03-14T09:24:17.493Z,10.38
2023-03-14T09:26:44.089Z,10.25
2023-03-14T09:29:10.642Z,10.25
2023-03-14T09:31:37.322Z,10.31
2023-03-14T09:34:04.017Z,10.35
2023-03-14T09:36:31.642Z,10.24
2023-03-14T09:38:58.199Z,10.39
2023-03-14T09:41:32.411Z,10.25
2023-03-14T09:44:09.572Z,10.24
2023-03-14T09:46:38.840Z,10.23
2023-03-14T09:49:13.380Z,10.33
2023-03-14T09:51:41.456Z,10.27
2023-03-14T09:54:38.201Z,10.30
2023-03-14T09:57:07.224Z,10.49
2023-03-14T09:59:36.168Z,10.63
2023-03-14T10:02:12.514Z,10.56
2023-03-14T10:04:42.475Z,10.62
2023-03-14T10:07:15.900Z,10.58
2023-03-14T10:09:48.794Z,10.68
2023-03-14T10:12:15.361Z,10.77
2023-03-14T10:14:51.280Z,10.67
2023-03-14T10:17:20.099Z,10.80
2023-03-14T10:19:58.884Z,10.77
2023-03-14T10:22:30.305Z,10.72
2023-03-14T10:25:02.918Z,10.86
2023-03-14T10:27:35.246Z,10.87
2023-03-14T10:30:08.281Z,10.82
2023-03-14T10:32:36.631Z,10.72
2023-03-14T10:35:21.467Z,10.79
2023-03-14T10:37:57.665Z,10.65
2023-03-14T10:40:31.249Z,10.55
2023-03-14T10:43:00.115Z,10.83
2023-03-14T10:45:30.436Z,10.65
2023-03-14T10:48:00.262Z,10.40
2023-03-14T10:50:29.332Z,10.63
2023-03-14T10:53:02.383Z,10.42
2023-03-14T10:55:39.659Z,10.57
2023-03-14T10:58:06.388Z,10.48
2023-03-14T11:00:34.203Z,10.45
2023-03-14T11:03:06.596Z,10.51
2023-03-14T11:05:43.552Z,10.47
2023-03-14T11:08:41.400Z,10.49
2023-03-14T11:11:22.787Z,10.61
2023-03-14T11:13:58.628Z,10.57
2023-03-14T11:16:44.389Z,10.50
2023-03-14T11:19:35.522Z,10.15
2023-03-14T11:22:14.498Z,10.18
2023-03-14T11:25:12.585Z,10.15
2023-03-14T11:27:45.347Z,9.98
2023-03-14T11:30:14.988Z,10.38
2023-03-14T11:33:18.611Z,10.35
2023-03-14T11:35:56.475Z,9.99
2023-03-14T11:38:50.725Z,10.31
2023-03-14T11:41:40.704Z,10.29
2023-03-14T11:44:28.390Z,10.58
2023-03-14T11:47:03.945Z,10.29
2023-03-14T11:49:39.916Z,10.13
2023-03-14T11:52:15.418Z,9.99
2023-03-14T11:54:56.324Z,10.15
2023-03-14T11:57:23.787Z,10.22
2023-03-14T12:00:22.798Z,10.19
2023-03-14T12:03:15.343Z,9.72
2023-03-14T12:05:49.930Z,9.78
2023-03-14T12:08:41.450Z,9.77
2023-03-14T12:11:18.294Z,10.07
2023-03-14T12:13:50.190Z,10.22
2023-03-14T12:16:41.284Z,10.37
2023-03-14T12:19:20.443Z,9.95
2023-03-14T12:21:55.648Z,9.40
2023-03-14T12:24:28.125Z,9.22
2023-03-14T12:26:57.482Z,9.15
2023-03-14T12:29:24.920Z,8.84
2023-03-14T12:32:22.752Z,9.03
2023-03-14T12:34:49.398Z,9.13
2023-03-14T12:37:36.893Z,9.16
2023-03-14T12:40:10.560Z,9.23
2023-03-14T12:42:46.066Z,9.29
2023-03-14T12:45:15.450Z,9.17
2023-03-14T12:47:50.824Z,9.21
2023-03-14T12:50:28.105Z,9.25
2023-03-14T12:53:20.584Z,9.48
2023-03-14T12:55:59.883Z,9.23
2023-03-14T12:58:26.476Z,9.16
2023-03-14T13:01:17.413Z,9.18
2023-03-14T13:03:51.801Z,9.13
2023-03-14T13:06:55.490Z,9.01
2023-03-14T13:09:32.538Z,8.96
2023-03-14T13:12:10.016Z,9.06
2023-03-14T13:14:41.935Z,8.52
2023-03-14T13:17:33.418Z,8.63
2023-03-14T13:20:06.328Z,8.42
2023-03-14T13:22:37.367Z,8.55
2023-03-14T13:25:07.518Z,8.55
2023-03-14T13:27:35.722Z,8.81
2023-03-14T13:30:20.650Z,8.55
2023-03-14T13:32:48.754Z,8.57
2023-03-14T13:35:28.551Z,8.31
2023-03-14T13:38:11.024Z,8.39
2023-03-14T13:40:38.052Z,8.53
2023-03-14T13:43:13.489Z,8.50
2023-03-14T13:45:51.682Z,8.08
2023-03-14T13:48:19.382Z,8.42
2023-03-14T13:51:17.445Z,8.49
2023-03-14T13:53:46.285Z,8.30
2023-03-14T13:56:13.718Z,8.19
2023-03-14T13:58:40.811Z,8.48
2023-03-14T14:01:18.112Z,8.33
2023-03-14T14:03:49.605Z,8.11
2023-03-14T14:06:28.638Z,8.22
2023-03-14T14:09:02.003Z,8.24
2023-03-14T14:11:47.057Z,7.84
2023-03-14T14:14:40.946Z,7.73
2023-03-14T14:17:14.752Z,8.02
2023-03-14T14:19:43.037Z,7.86
2023-03-14T14:22:11.337Z,7.61
2023-03-14T14:24:39.409Z,7.71
2023-03-14T14:27:11.599Z,7.71
2023-03-14T14:29:39.193Z,7.76
2023-03-14T14:32:08.754Z,7.74
2023-03-14T14:34:58.568Z,7.59
2023-03-14T14:37:31.511Z,7.59
2023-03-14T14:40:01.288Z,7.68
2023-03-14T14:42:32.527Z,7.84
2023-03-14T14:45:00.766Z,7.67
2023-03-14T14:47:29.668Z,7.61
2023-03-14T14:50:00.799Z,7.69
2023-03-14T14:52:45.096Z,7.74
2023-03-14T14:55:17.381Z,7.77
2023-03-14T14:57:53.277Z,8.07
2023-03-14T15:00:26.362Z,8.09
2023-03-14T15:02:56.144Z,8.00
2023-03-14T15:05:25.078Z,7.84
2023-03-14T15:07:52.103Z,7.89
2023-03-14T15:10:24.616Z,8.00
2023-03-14T15:12:51.410Z,8.07
2023-03-14T15:15:18.867Z,8.25
2023-03-14T15:17:45.428Z,7.90
2023-03-14T15:20:14.991Z,7.84
2023-03-14T15:22:42.513Z,8.11
2023-03-14T15:25:18.587Z,8.14
2023-03-14T15:27:49.126Z,7.74
2023-03-14T15:30:16.409Z,7.78
2023-03-14T15:32:43.020Z,7.80
2023-03-14T15:35:10.377Z,7.77
2023-03-14T15:37:37.049Z,7.83
2023-03-14T15:40:12.697Z,7.56
2023-03-14T15:42:39.312Z,7.62
2023-03-14T15:45:06.432Z,7.72
2023-03-14T15:47:33.249Z,7.82
2023-03-14T15:50:00.126Z,7.50
2023-03-14T15:52:26.862Z,7.74
2023-03-14T15:54:53.419Z,7.81
2023-03-14T15:57:19.950Z,7.63
2023-03-14T15:59:46.654Z,7.70
2023-03-14T16:02:13.207Z,7.87
2023-03-14T16:04:39.906Z,7.56
2023-03-14T16:07:07.195Z,7.75
2023-03-14T16:09:33.765Z,7.35
2023-03-14T16:12:00.453Z,7.61
2023-03-14T16:14:27.014Z,7.75
2023-03-14T16:16:55.779Z,7.59
2023-03-14T16:19:22.568Z,7.72
2023-03-14T16:21:51.739Z,7.84
2023-03-14T16:24:19.076Z,7.71
2023-03-14T16:26:46.366Z,7.79
2023-03-14T16:29:13.258Z,7.70
2023-03-14T16:31:43.095Z,7.65
2023-03-14T16:34:10.265Z,7.81
2023-03-14T16:36:36.858Z,7.92
2023-03-14T16:39:04.564Z,8.11
2023-03-14T16:41:31.697Z,8.24
2023-03-14T16:44:01.891Z,8.42
2023-03-14T16:46:30.346Z,8.50
2023-03-14T16:48:57.684Z,8.37
2023-03-14T16:51:24.769Z,7.88
2023-03-14T16:53:51.585Z,8.07
2023-03-14T16:56:18.391Z,8.13
2023-03-14T16:58:45.394Z,8.05
2023-03-14T17:01:14.832Z,8.07
2023-03-14T17:03:43.629Z,8.05
2023-03-14T17:06:16.221Z,8.26
2023-03-14T17:08:42.889Z,8.12
2023-03-14T17:11:09.976Z,8.15
2023-03-14T17:13:37.061Z,8.13
2023-03-14T17:16:04.476Z,8.18
2023-03-14T17:18:32.053Z,8.31
2023-03-14T17:20:59.332Z,8.07
2023-03-14T17:23:27.466Z,7.45
2023-03-14T17:25:54.042Z,7.46
2023-03-14T17:28:22.404Z,7.12
2023-03-14T17:30:49.248Z,6.98
2023-03-14T17:33:16.048Z,6.68
2023-03-14T17:35:44.086Z,6.49
2023-03-14T17:38:10.728Z,6.50
2023-03-14T17:40:37.330Z,6.61
2023-03-14T17:43:03.901Z,6.76
2023-03-14T17:45:30.475Z,6.99
2023-03-14T17:47:57.152Z,6.93
2023-03-14T17:50:24.032Z,7.12
2023-03-14T17:52:50.644Z,6.72
2023-03-14T17:55:17.247Z,6.94
2023-03-14T17:57:44.917Z,7.05
2023-03-14T18:00:13.048Z,6.59
2023-03-14T18:02:41.681Z,6.32
2023-03-14T18:05:09.531Z,6.23
2023-03-14T18:07:37.909Z,6.10
2023-03-14T18:10:06.733Z,5.99
2023-03-14T18:12:33.333Z,6.07
2023-03-14T18:14:59.873Z,6.01
2023-03-14T18:17:26.548Z,5.92
2023-03-14T18:19:54.365Z,6.06
2023-03-14T18:22:20.960Z,5.86
2023-03-14T18:24:47.803Z,5.91
2023-03-14T18:27:15.879Z,6.02
2023-03-14T18:29:42.794Z,6.38
2023-03-14T18:32:10.621Z,6.07
2023-03-14T18:34:37.538Z,6.31
2023-03-14T18:37:04.114Z,6.52
2023-03-14T18:39:31.310Z,6.49
2023-03-14T18:41:57.858Z,6.13
2023-03-14T18:44:24.436Z,6.33
2023-03-14T18:46:51.111Z,6.31
2023-03-14T18:49:18.038Z,6.44
2023-03-14T18:51:45.122Z,6.20
2023-03-14T18:54:11.726Z,6.06
2023-03-14T18:56:41.357Z,5.62
2023-03-14T18:59:09.127Z,5.83
2023-03-14T19:01:36.314Z,5.64
2023-03-14T19:04:03.544Z,6.04
2023-03-14T19:06:34.030Z,6.30
2023-03-14T19:09:01.977Z,6.19
2023-03-14T19:11:28.800Z,6.33
2023-03-14T19:13:56.706Z,6.03
2023-03-14T19:16:24.719Z,6.35
2023-03-14T19:18:52.303Z,6.48
2023-03-14T19:21:36.264Z,6.81
2023-03-14T19:24:05.443Z,6.98
2023-03-14T19:26:32.715Z,6.88
2023-03-14T19:28:59.677Z,6.95
2023-03-14T19:31:26.893Z,6.84
2023-03-14T19:33:54.089Z,6.76
2023-03-14T19:36:22.566Z,6.91
2023-03-14T19:38:49.747Z,6.47
2023-03-14T19:41:16.458Z,6.29
2023-03-14T19:43:43.027Z,6.49
2023-03-14T19:46:09.718Z,6.73
2023-03-14T19:48:37.450Z,6.56
2023-03-14T19:51:04.439Z,6.60
2023-03-14T19:53:31.426Z,6.50
2023-03-14T19:55:58.219Z,6.19
2023-03-14T19:58:24.940Z,6.47
2023-03-14T20:00:51.674Z,6.25
2023-03-14T20:03:18.286Z,6.05
2023-03-14T20:05:44.819Z,5.99
2023-03-14T20:08:11.930Z,6.25
2023-03-14T20:10:38.508Z,6.17
2023-03-14T20:13:15.503Z,6.25
2023-03-14T20:15:47.544Z,6.31
2023-03-14T20:18:14.256Z,6.43
2023-03-14T20:20:41.736Z,6.47
2023-03-14T20:23:09.337Z,6.21
2023-03-14T20:25:37.577Z,6.13
2023-03-14T20:28:05.085Z,5.81
2023-03-14T20:30:32.136Z,6.20
2023-03-14T20:32:58.802Z,6.47
2023-03-14T20:35:25.378Z,6.42
2023-03-14T20:37:58.158Z,6.39
2023-03-14T20:40:28.816Z,5.81
2023-03-14T20:42:56.056Z,5.95
2023-03-14T20:45:22.676Z,5.75
2023-03-14T20:47:50.158Z,6.51
2023-03-14T20:50:17.252Z,6.87
2023-03-14T20:52:45.128Z,7.04
2023-03-14T20:55:11.832Z,7.11
2023-03-14T20:57:38.493Z,7.05
2023-03-14T21:00:08.377Z,7.12
2023-03-14T21:02:35.177Z,6.92
2023-03-14T21:05:02.509Z,7.04
2023-03-14T21:07:34.362Z,7.13
2023-03-14T21:10:01.038Z,6.99
2023-03-14T21:12:27.872Z,6.11
2023-03-14T21:14:54.497Z,6.32
2023-03-14T21:17:21.075Z,5.53
2023-03-14T21:19:47.783Z,5.93
2023-03-14T21:22:18.936Z,6.03
2023-03-14T21:24:46.122Z,6.27
2023-03-14T21:27:12.771Z,6.20
2023-03-14T21:29:39.650Z,5.90
2023-03-14T21:32:06.261Z,5.72
2023-03-14T21:34:33.282Z,5.38
2023-03-14T21:36:59.875Z,5.36
2023-03-14T21:39:26.424Z,5.35
2023-03-14T21:41:53.297Z,5.33
2023-03-14T21:44:20.497Z,5.67
2023-03-14T21:46:47.841Z,6.10
2023-03-14T21:49:15.633Z,6.23
2023-03-14T21:51:45.857Z,6.45
2023-03-14T21:54:15.303Z,6.32
2023-03-14T21:56:43.390Z,6.27
2023-03-14T21:59:11.110Z,6.25
2023-03-14T22:01:37.809Z,6.15
2023-03-14T22:04:04.410Z,5.96
2023-03-14T22:06:31.036Z,6.05
2023-03-14T22:08:57.731Z,6.18
2023-03-14T22:11:24.948Z,6.01
2023-03-14T22:13:51.520Z,5.96
2023-03-14T22:16:18.072Z,5.35
2023-03-14T22:18:45.472Z,5.25
2023-03-14T22:21:12.746Z,5.40
2023-03-14T22:23:39.306Z,4.98
2023-03-14T22:26:05.888Z,5.10
2023-03-14T22:28:32.455Z,5.42
2023-03-14T22:31:00.426Z,5.55
2023-03-14T22:33:28.840Z,5.44
2023-03-14T22:35:55.431Z,5.42
2023-03-14T22:38:22.426Z,5.12
2023-03-14T22:40:49.081Z,4.79
2023-03-14T22:43:15.743Z,5.02
2023-03-14T22:45:42.407Z,4.67
2023-03-14T22:48:08.985Z,4.44
2023-03-14T22:50:38.650Z,4.92
2023-03-14T22:53:05.217Z,5.03
2023-03-14T22:55:31.783Z,4.73
2023-03-14T22:57:58.953Z,4.31
2023-03-14T23:00:26.939Z,4.44
2023-03-14T23:02:53.856Z,4.35
2023-03-14T23:05:20.636Z,4.65
2023-03-14T23:07:47.223Z,4.95
2023-03-14T23:10:13.823Z,4.77
2023-03-14T23:12:40.400Z,4.56
2023-03-14T23:15:08.359Z,4.43
2023-03-14T23:17:35.196Z,4.67
2023-03-14T23:20:01.863Z,4.91
2023-03-14T23:22:32.668Z,3.94
2023-03-14T23:25:00.391Z,4.05
2023-03-14T23:27:27.633Z,4.81
2023-03-14T23:29:54.181Z,4.86
2023-03-14T23:32:20.866Z,4.57
2023-03-14T23:34:47.500Z,4.41
2023-03-14T23:37:14.307Z,4.76
2023-03-14T23:39:43.955Z,4.45
2023-03-14T23:42:10.556Z,4.21
2023-03-14T23:44:37.283Z,4.28
2023-03-14T23:47:03.911Z,4.44
2023-03-14T23:49:30.526Z,4.63
2023-03-14T23:51:57.178Z,4.76
2023-03-14T23:54:23.839Z,4.60
2023-03-14T23:56:50.615Z,4.57
2023-03-14T23:59:17.270Z,4.89
